Sidney, Canada
Current Conditions -  °F | °C
As of 5:00 AM on Friday 24 Oct 2014 (Local Time) from CYYJ Reporting Station
Overcast Overcast  
Wind Chill: 45°   Ceiling: 1700
Heat Index: 48°   Visibility: 30mi
Dew Point: 45°   Wind: 7mph
Humidity: 87%   Direction: 280°W
Pressure: 30.02"   Gusts: NA
Location:  48.65°N, 123.42°W
Report Text: CYYJ 241200Z 28006KT 30SM FEW013 BKN017 OVC024 09/07 A3002 RMK SC1SC6SC2 SC TR /SNSHN 042/ SLP166
Loading
Personal Weather Stations






























Interactive Weather Map
Tropical Storm Tracking
New forecast layout! Learn more

10-Day Weather Forecast

Advertisements
Track Severe Weather on mobile